Alpha, Kentucky
Current Conditions -  °F | °C
As of 11:56 PM on Tuesday 25 Nov 2014 (Local Time) from KEKQ Reporting Station
Clear Clear  
Wind Chill: 34°   Ceiling: Unl
Heat Index: 38°   Visibility: 10mi
Dew Point: 29°   Wind: 5mph
Humidity: 71%   Direction: 340°NNW
Pressure: 30.15"   Gusts: NA
Location:  36.77°N, 85.01°W
Report Text: KEKQ 260556Z AUTO 34004KT 10SM CLR 03/M02 A3015 RMK AO2 55008 T00331016 10061 20027 SLP215
Loading
Personal Weather Stations






























Interactive Weather Map New forecast layout! Learn more

10-Day Weather Forecast

Advertisements
Track Severe Weather on mobile